createdAt,value
2023-05-14T00:00:38.629Z,8.90
2023-05-14T00:03:06.860Z,8.80
2023-05-14T00:05:36.563Z,8.80
2023-05-14T00:08:04.855Z,8.80
2023-05-14T00:10:33.125Z,8.70
2023-05-14T00:13:01.922Z,8.70
2023-05-14T00:15:31.797Z,8.60
2023-05-14T00:18:02.190Z,8.60
2023-05-14T00:20:31.660Z,8.50
2023-05-14T00:23:01.955Z,8.50
2023-05-14T00:25:30.739Z,8.40
2023-05-14T00:27:58.882Z,8.40
2023-05-14T00:30:27.146Z,8.40
2023-05-14T00:32:55.319Z,8.30
2023-05-14T00:35:23.847Z,8.30
2023-05-14T00:37:52.247Z,8.30
2023-05-14T00:40:26.690Z,8.30
2023-05-14T00:42:54.911Z,8.30
2023-05-14T00:45:23.444Z,8.20
2023-05-14T00:47:53.412Z,8.20
2023-05-14T00:50:22.319Z,8.20
2023-05-14T00:52:51.083Z,8.20
2023-05-14T00:55:22.719Z,8.20
2023-05-14T00:57:51.824Z,8.20
2023-05-14T01:00:21.055Z,8.30
2023-05-14T01:02:49.397Z,8.30
2023-05-14T01:05:17.903Z,8.30
2023-05-14T01:07:58.991Z,8.40
2023-05-14T01:10:43.153Z,8.40
2023-05-14T01:13:25.064Z,8.50
2023-05-14T01:15:57.107Z,8.60
2023-05-14T01:18:27.004Z,8.70
2023-05-14T01:20:55.898Z,8.80
2023-05-14T01:23:25.415Z,8.80
2023-05-14T01:25:53.562Z,8.90
2023-05-14T01:28:32.504Z,9.00
2023-05-14T01:31:08.952Z,9.10
2023-05-14T01:33:38.628Z,9.10
2023-05-14T01:36:07.665Z,9.10
2023-05-14T01:38:38.212Z,9.20
2023-05-14T01:41:07.128Z,9.20
2023-05-14T01:43:36.505Z,9.20
2023-05-14T01:46:04.970Z,9.20
2023-05-14T01:48:33.261Z,9.20
2023-05-14T01:51:02.259Z,9.30
2023-05-14T01:53:30.551Z,9.30
2023-05-14T01:56:00.144Z,9.30
2023-05-14T01:58:28.294Z,9.30
2023-05-14T02:00:56.390Z,9.40
2023-05-14T02:03:24.570Z,9.40
2023-05-14T02:05:52.739Z,9.40
2023-05-14T02:08:21.195Z,9.40
2023-05-14T02:10:49.709Z,9.40
2023-05-14T02:13:19.247Z,9.40
2023-05-14T02:15:47.503Z,9.40
2023-05-14T02:18:15.863Z,9.40
2023-05-14T02:20:44.166Z,9.40
2023-05-14T02:23:12.339Z,9.50
2023-05-14T02:25:40.563Z,9.50
2023-05-14T02:28:09.114Z,9.50
2023-05-14T02:30:38.600Z,9.60
2023-05-14T02:33:06.979Z,9.60
2023-05-14T02:35:35.165Z,9.60
2023-05-14T02:38:03.551Z,9.70
2023-05-14T02:40:31.678Z,9.70
2023-05-14T02:42:59.791Z,9.70
2023-05-14T02:45:28.018Z,9.80
2023-05-14T02:47:57.603Z,9.80
2023-05-14T02:50:25.998Z,9.80
2023-05-14T02:52:54.355Z,9.90
2023-05-14T02:55:22.913Z,9.90
2023-05-14T02:57:52.663Z,9.90
2023-05-14T03:00:21.635Z,9.90
2023-05-14T03:02:50.476Z,9.90
2023-05-14T03:05:20.664Z,9.90
2023-05-14T03:07:48.977Z,9.90
2023-05-14T03:10:17.258Z,10.00
2023-05-14T03:12:45.435Z,10.00
2023-05-14T03:15:13.724Z,10.00
2023-05-14T03:17:42.010Z,10.00
2023-05-14T03:20:11.673Z,10.00
2023-05-14T03:22:41.497Z,10.00
2023-05-14T03:25:10.739Z,10.00
2023-05-14T03:27:38.929Z,10.10
2023-05-14T03:30:09.094Z,10.00
2023-05-14T03:32:38.399Z,10.10
2023-05-14T03:35:08.139Z,10.10
2023-05-14T03:37:36.335Z,10.10
2023-05-14T03:40:08.085Z,10.10
2023-05-14T03:42:37.893Z,10.10
2023-05-14T03:45:07.898Z,10.20
2023-05-14T03:47:36.220Z,10.20
2023-05-14T03:50:04.713Z,10.20
2023-05-14T03:52:32.813Z,10.20
2023-05-14T03:55:00.997Z,10.20
2023-05-14T03:57:30.494Z,10.20
2023-05-14T03:59:58.645Z,10.20
2023-05-14T04:02:26.954Z,10.20
2023-05-14T04:04:56.949Z,10.30
2023-05-14T04:07:25.115Z,10.30
2023-05-14T04:09:54.831Z,10.30
2023-05-14T04:12:23.100Z,10.40
2023-05-14T04:14:52.650Z,10.40
2023-05-14T04:17:20.824Z,10.40
2023-05-14T04:19:49.939Z,10.50
2023-05-14T04:22:18.090Z,10.60
2023-05-14T04:24:46.208Z,10.60
2023-05-14T04:27:20.922Z,10.70
2023-05-14T04:29:49.184Z,10.70
2023-05-14T04:32:18.727Z,10.80
2023-05-14T04:34:47.787Z,10.80
2023-05-14T04:37:15.893Z,10.90
2023-05-14T04:39:44.095Z,11.00
2023-05-14T04:42:12.512Z,11.00
2023-05-14T04:44:40.618Z,11.00
2023-05-14T04:47:08.716Z,11.00
2023-05-14T04:49:38.151Z,11.00
2023-05-14T04:52:07.403Z,10.90
2023-05-14T04:54:35.602Z,10.90
2023-05-14T04:57:03.807Z,10.90
2023-05-14T04:59:32.034Z,10.80
2023-05-14T05:02:00.179Z,10.80
2023-05-14T05:04:28.862Z,10.80
2023-05-14T05:06:58.362Z,10.80
2023-05-14T05:09:26.513Z,10.80
2023-05-14T05:11:54.594Z,10.90
2023-05-14T05:14:22.836Z,10.90
2023-05-14T05:16:51.955Z,10.90
2023-05-14T05:19:26.500Z,11.00
2023-05-14T05:22:02.948Z,11.00
2023-05-14T05:24:31.165Z,11.00
2023-05-14T05:26:59.435Z,11.10
2023-05-14T05:29:27.704Z,11.10
2023-05-14T05:31:55.925Z,11.20
2023-05-14T05:34:24.263Z,11.30
2023-05-14T05:36:52.611Z,11.30
2023-05-14T05:39:22.117Z,11.30
2023-05-14T05:41:50.347Z,11.40
2023-05-14T05:44:18.695Z,11.40
2023-05-14T05:46:46.862Z,11.50
2023-05-14T05:49:16.797Z,11.50
2023-05-14T05:51:44.925Z,11.50
2023-05-14T05:54:13.124Z,11.60
2023-05-14T05:56:42.838Z,11.60
2023-05-14T05:59:10.921Z,11.60
2023-05-14T06:01:40.652Z,11.70
2023-05-14T06:04:08.822Z,11.70
2023-05-14T06:06:37.013Z,11.80
2023-05-14T06:09:06.830Z,11.80
2023-05-14T06:11:35.094Z,11.90
2023-05-14T06:14:04.650Z,12.10
2023-05-14T06:16:32.991Z,12.20
2023-05-14T06:19:01.376Z,12.30
2023-05-14T06:21:29.653Z,12.30
2023-05-14T06:23:57.747Z,12.40
2023-05-14T06:26:26.288Z,12.50
2023-05-14T06:28:54.392Z,12.60
2023-05-14T06:31:23.938Z,12.80
2023-05-14T06:33:52.229Z,13.10
2023-05-14T06:36:20.438Z,13.30
2023-05-14T06:38:48.533Z,13.60
2023-05-14T06:41:18.112Z,13.80
2023-05-14T06:43:46.241Z,14.00
2023-05-14T06:46:14.388Z,14.20
2023-05-14T06:48:43.986Z,14.30
2023-05-14T06:51:13.216Z,14.50
2023-05-14T06:53:42.046Z,14.60
2023-05-14T06:56:10.286Z,14.70
2023-05-14T06:58:38.381Z,14.80
2023-05-14T07:01:06.829Z,14.90
2023-05-14T07:03:35.151Z,15.00
2023-05-14T07:06:04.890Z,15.10
2023-05-14T07:08:33.046Z,15.20
2023-05-14T07:11:01.247Z,15.30
2023-05-14T07:13:29.438Z,15.50
2023-05-14T07:15:57.624Z,15.60
2023-05-14T07:18:25.926Z,15.70
2023-05-14T07:20:54.094Z,15.80
2023-05-14T07:23:23.626Z,15.90
2023-05-14T07:25:51.803Z,16.00
2023-05-14T07:28:20.051Z,16.10
2023-05-14T07:30:48.316Z,16.20
2023-05-14T07:33:16.494Z,16.30
2023-05-14T07:35:44.750Z,16.30
2023-05-14T07:38:12.978Z,16.40
2023-05-14T07:40:42.549Z,16.50
2023-05-14T07:43:11.542Z,16.60
2023-05-14T07:45:40.230Z,16.60
2023-05-14T07:48:08.601Z,16.70
2023-05-14T07:50:37.622Z,16.70
2023-05-14T07:53:05.746Z,16.80
2023-05-14T07:55:33.901Z,16.90
2023-05-14T07:58:03.494Z,17.00
2023-05-14T08:00:31.926Z,17.10
2023-05-14T08:03:00.289Z,17.20
2023-05-14T08:05:28.626Z,17.30
2023-05-14T08:07:56.925Z,17.40
2023-05-14T08:10:25.604Z,17.50
2023-05-14T08:12:54.159Z,17.60
2023-05-14T08:15:26.353Z,17.70
2023-05-14T08:17:55.932Z,17.80
2023-05-14T08:20:24.793Z,17.80
2023-05-14T08:22:53.050Z,17.80
2023-05-14T08:25:21.247Z,17.90
2023-05-14T08:27:49.367Z,18.10
2023-05-14T08:30:17.990Z,18.20
2023-05-14T08:32:47.511Z,18.40
2023-05-14T08:35:16.036Z,18.50
2023-05-14T08:37:44.840Z,18.60
2023-05-14T08:40:14.245Z,18.80
2023-05-14T08:42:44.740Z,18.90
2023-05-14T08:45:19.996Z,19.00
2023-05-14T08:47:51.800Z,19.20
2023-05-14T08:50:23.074Z,19.40
2023-05-14T08:52:52.587Z,19.50
2023-05-14T08:55:21.983Z,19.40
2023-05-14T08:57:50.725Z,19.30
2023-05-14T09:00:19.434Z,19.30
2023-05-14T09:02:50.308Z,19.30
2023-05-14T09:05:20.538Z,19.40
2023-05-14T09:07:48.671Z,19.60
2023-05-14T09:10:18.084Z,19.70
2023-05-14T09:12:46.261Z,19.80
2023-05-14T09:15:14.667Z,20.00
2023-05-14T09:17:42.972Z,20.20
2023-05-14T09:20:14.177Z,20.40
2023-05-14T09:22:43.107Z,20.60
2023-05-14T09:25:12.952Z,20.70
2023-05-14T09:27:41.308Z,20.90
2023-05-14T09:30:11.832Z,20.90
2023-05-14T09:32:43.880Z,20.80
2023-05-14T09:35:20.653Z,20.70
2023-05-14T09:37:51.646Z,20.60
2023-05-14T09:40:21.580Z,20.60
2023-05-14T09:42:50.475Z,20.70
2023-05-14T09:45:19.053Z,20.70
2023-05-14T09:47:47.410Z,20.70
2023-05-14T09:50:17.025Z,20.70
2023-05-14T09:52:46.448Z,20.80
2023-05-14T09:55:16.042Z,20.90
2023-05-14T09:57:45.003Z,21.00
2023-05-14T10:00:16.070Z,21.00
2023-05-14T10:02:48.026Z,21.00
2023-05-14T10:05:19.072Z,21.00
2023-05-14T10:07:50.459Z,20.90
2023-05-14T10:10:22.226Z,20.80
2023-05-14T10:12:58.068Z,20.50
2023-05-14T10:15:34.624Z,20.30
2023-05-14T10:18:11.212Z,20.30
2023-05-14T10:20:42.642Z,20.30
2023-05-14T10:23:11.034Z,20.30
2023-05-14T10:25:40.322Z,20.30
2023-05-14T10:28:08.694Z,20.10
2023-05-14T10:30:36.879Z,20.10
2023-05-14T10:33:10.272Z,20.20
2023-05-14T10:36:05.194Z,20.40
2023-05-14T10:38:35.624Z,20.40
2023-05-14T10:41:05.868Z,20.50
2023-05-14T10:43:39.205Z,20.70
2023-05-14T10:46:09.386Z,20.80
2023-05-14T10:48:40.355Z,20.90
2023-05-14T10:51:12.017Z,21.10
2023-05-14T10:53:42.225Z,21.30
2023-05-14T10:56:12.626Z,21.40
2023-05-14T10:58:43.914Z,21.50
2023-05-14T11:01:14.279Z,21.60
2023-05-14T11:03:46.577Z,21.70
2023-05-14T11:06:17.107Z,21.80
2023-05-14T11:08:46.446Z,22.00
2023-05-14T11:11:15.347Z,22.10
2023-05-14T11:13:45.647Z,22.10
2023-05-14T11:18:53.914Z,22.00
2023-05-14T11:21:23.452Z,21.90
2023-05-14T11:23:51.610Z,21.70
2023-05-14T11:26:21.616Z,21.60
2023-05-14T11:28:50.837Z,21.40
2023-05-14T11:31:19.197Z,21.30
2023-05-14T11:33:47.733Z,21.30
2023-05-14T11:36:15.970Z,21.20
2023-05-14T11:38:53.722Z,21.20
2023-05-14T11:41:23.168Z,21.10
2023-05-14T11:43:51.733Z,21.00
2023-05-14T11:46:20.247Z,20.90
2023-05-14T11:48:49.020Z,20.80
2023-05-14T11:51:17.279Z,20.80
2023-05-14T11:53:47.632Z,20.80
2023-05-14T11:56:17.278Z,20.90
2023-05-14T11:58:49.914Z,21.00
2023-05-14T12:01:18.045Z,21.00
2023-05-14T12:03:46.463Z,20.90
2023-05-14T12:06:14.964Z,21.00
2023-05-14T12:08:43.166Z,21.00
2023-05-14T12:11:11.398Z,21.00
2023-05-14T12:13:41.298Z,21.20
2023-05-14T12:16:09.766Z,21.40
2023-05-14T12:18:38.662Z,21.60
2023-05-14T12:21:08.858Z,21.90
2023-05-14T12:23:40.131Z,22.00
2023-05-14T12:26:09.972Z,22.10
2023-05-14T12:28:48.556Z,22.30
2023-05-14T12:31:17.059Z,22.50
2023-05-14T12:33:45.378Z,22.50
2023-05-14T12:38:48.490Z,22.60
2023-05-14T12:41:17.311Z,22.70
2023-05-14T12:43:49.797Z,22.70
2023-05-14T12:46:18.036Z,22.50
2023-05-14T12:48:46.618Z,22.30
2023-05-14T12:51:14.818Z,22.20
2023-05-14T12:53:43.025Z,22.00
2023-05-14T12:56:11.517Z,21.80
2023-05-14T12:58:39.743Z,21.80
2023-05-14T13:01:09.389Z,21.70
2023-05-14T13:03:37.585Z,21.50
2023-05-14T13:06:06.193Z,21.40
2023-05-14T13:08:34.505Z,21.30
2023-05-14T13:11:02.589Z,21.30
2023-05-14T13:13:30.741Z,21.30
2023-05-14T13:15:58.922Z,21.40
2023-05-14T13:18:28.415Z,21.50
2023-05-14T13:20:56.635Z,21.50
2023-05-14T13:23:25.192Z,21.50
2023-05-14T13:25:53.467Z,21.70
2023-05-14T13:28:21.610Z,21.90
2023-05-14T13:31:07.834Z,22.40
2023-05-14T13:33:41.179Z,22.90
2023-05-14T13:36:10.732Z,23.00
2023-05-14T13:38:39.279Z,22.90
2023-05-14T13:41:07.678Z,22.80
2023-05-14T13:43:37.027Z,22.90
2023-05-14T13:46:06.940Z,23.10
2023-05-14T13:48:35.919Z,23.20
2023-05-14T13:51:05.557Z,23.10
2023-05-14T13:53:33.770Z,23.00
2023-05-14T13:56:02.045Z,22.90
2023-05-14T13:58:30.398Z,22.80
2023-05-14T14:00:58.722Z,22.70
2023-05-14T14:03:26.878Z,22.70
2023-05-14T14:05:55.409Z,22.70
2023-05-14T14:08:24.987Z,22.80
2023-05-14T14:10:55.181Z,22.80
2023-05-14T14:13:24.250Z,22.80
2023-05-14T14:15:52.557Z,22.70
2023-05-14T14:18:20.795Z,22.60
2023-05-14T14:20:49.276Z,22.50
2023-05-14T14:23:17.520Z,22.40
2023-05-14T14:25:47.043Z,22.40
2023-05-14T14:28:15.269Z,22.50
2023-05-14T14:30:44.168Z,22.60
2023-05-14T14:33:12.476Z,22.70
2023-05-14T14:35:40.889Z,23.30
2023-05-14T14:38:09.370Z,24.70
2023-05-14T14:40:37.544Z,25.50
2023-05-14T14:43:07.129Z,25.80
2023-05-14T14:45:35.368Z,25.80
2023-05-14T14:48:38.541Z,25.30
2023-05-14T14:51:08.497Z,24.70
2023-05-14T14:53:37.866Z,24.20
2023-05-14T14:56:07.291Z,23.70
2023-05-14T14:58:37.002Z,23.20
2023-05-14T15:01:05.685Z,22.60
2023-05-14T15:03:34.300Z,22.20
2023-05-14T15:06:02.629Z,21.90
2023-05-14T15:08:30.732Z,21.50
2023-05-14T15:10:59.347Z,21.20
2023-05-14T15:13:28.258Z,21.10
2023-05-14T15:15:57.860Z,20.90
2023-05-14T15:18:26.334Z,20.80
2023-05-14T15:20:54.596Z,20.70
2023-05-14T15:23:22.740Z,20.70
2023-05-14T15:25:50.902Z,20.60
2023-05-14T15:28:19.197Z,20.50
2023-05-14T15:30:49.231Z,20.60
2023-05-14T15:33:19.580Z,20.60
2023-05-14T15:35:47.877Z,20.60
2023-05-14T15:38:16.061Z,20.60
2023-05-14T15:40:44.217Z,20.70
2023-05-14T15:43:12.496Z,20.80
2023-05-14T15:45:40.847Z,20.80
2023-05-14T15:48:09.071Z,20.90
2023-05-14T15:50:39.455Z,21.00
2023-05-14T15:53:07.731Z,21.40
2023-05-14T15:55:36.001Z,21.60
2023-05-14T15:58:04.669Z,21.70
2023-05-14T16:00:32.923Z,21.60
2023-05-14T16:03:01.234Z,21.70
2023-05-14T16:05:30.447Z,22.60
2023-05-14T16:08:00.489Z,22.70
2023-05-14T16:10:28.623Z,22.50
2023-05-14T16:12:56.816Z,22.10
2023-05-14T16:15:25.051Z,21.60
2023-05-14T16:17:53.224Z,21.30
2023-05-14T16:20:21.514Z,21.00
2023-05-14T16:22:49.780Z,20.80
2023-05-14T16:25:19.567Z,20.60
2023-05-14T16:27:47.839Z,20.40
2023-05-14T16:30:16.248Z,20.30
2023-05-14T16:32:48.435Z,20.20
2023-05-14T16:35:17.295Z,20.10
2023-05-14T16:37:45.841Z,20.10
2023-05-14T16:40:16.070Z,20.00
2023-05-14T16:42:48.488Z,20.00
2023-05-14T16:45:17.752Z,20.00
2023-05-14T16:47:46.153Z,20.10
2023-05-14T16:50:14.367Z,20.40
2023-05-14T16:52:42.644Z,21.60
2023-05-14T16:55:11.350Z,23.20
2023-05-14T16:57:39.499Z,24.60
2023-05-14T17:00:13.379Z,25.10
2023-05-14T17:02:41.783Z,24.90
2023-05-14T17:05:10.975Z,24.40
2023-05-14T17:07:39.518Z,23.80
2023-05-14T17:10:09.081Z,23.20
2023-05-14T17:12:37.364Z,22.70
2023-05-14T17:15:07.196Z,22.20
2023-05-14T17:17:36.760Z,21.90
2023-05-14T17:20:06.560Z,21.60
2023-05-14T17:22:34.890Z,21.40
2023-05-14T17:25:03.303Z,21.30
2023-05-14T17:27:33.243Z,21.10
2023-05-14T17:30:01.462Z,20.90
2023-05-14T17:32:31.075Z,20.70
2023-05-14T17:35:00.832Z,20.60
2023-05-14T17:37:29.002Z,20.40
2023-05-14T17:39:57.260Z,20.20
2023-05-14T17:42:25.440Z,20.10
2023-05-14T17:44:53.705Z,19.90
2023-05-14T17:47:22.670Z,19.70
2023-05-14T17:49:51.814Z,19.50
2023-05-14T17:52:21.365Z,19.30
2023-05-14T17:54:49.648Z,19.10
2023-05-14T17:57:18.060Z,18.90
2023-05-14T17:59:46.188Z,18.70
2023-05-14T18:02:14.476Z,18.50
2023-05-14T18:04:42.599Z,18.30
2023-05-14T18:07:10.907Z,18.10
2023-05-14T18:09:40.558Z,18.00
2023-05-14T18:12:09.946Z,17.90
2023-05-14T18:14:38.144Z,17.80
2023-05-14T18:17:06.960Z,17.70
2023-05-14T18:19:35.141Z,17.60
2023-05-14T18:22:03.454Z,17.60
2023-05-14T18:24:31.631Z,17.50
2023-05-14T18:27:01.478Z,17.40
2023-05-14T18:29:29.572Z,17.30
2023-05-14T18:31:58.227Z,17.30
2023-05-14T18:34:26.436Z,17.20
2023-05-14T18:36:54.669Z,17.10
2023-05-14T18:39:22.853Z,17.10
2023-05-14T18:41:51.144Z,17.00
2023-05-14T18:44:20.700Z,16.90
2023-05-14T18:46:49.194Z,16.90
2023-05-14T18:49:18.669Z,16.80
2023-05-14T18:51:48.251Z,16.80
2023-05-14T18:54:16.784Z,16.70
2023-05-14T18:56:47.470Z,16.70
2023-05-14T18:59:15.992Z,16.60
2023-05-14T19:01:45.803Z,16.50
2023-05-14T19:04:14.026Z,16.40
2023-05-14T19:06:42.500Z,16.40
2023-05-14T19:09:11.240Z,16.30
2023-05-14T19:11:39.515Z,16.20
2023-05-14T19:14:11.585Z,16.10
2023-05-14T19:16:39.924Z,15.90
2023-05-14T19:19:09.905Z,15.80
2023-05-14T19:21:38.152Z,15.60
2023-05-14T19:24:07.263Z,15.50
2023-05-14T19:26:36.698Z,15.30
2023-05-14T19:29:04.969Z,15.20
2023-05-14T19:31:33.173Z,15.10
2023-05-14T19:34:01.450Z,14.90
2023-05-14T19:36:32.570Z,14.80
2023-05-14T19:39:00.844Z,14.70
2023-05-14T19:41:29.306Z,14.60
2023-05-14T19:43:57.527Z,14.40
2023-05-14T19:46:26.002Z,14.40
2023-05-14T19:48:54.564Z,14.20
2023-05-14T19:51:22.733Z,14.20
2023-05-14T19:53:52.373Z,14.00
2023-05-14T19:56:21.503Z,13.90
2023-05-14T19:58:49.698Z,13.80
2023-05-14T20:01:18.857Z,13.70
2023-05-14T20:03:47.130Z,13.60
2023-05-14T20:06:15.611Z,13.50
2023-05-14T20:08:45.126Z,13.40
2023-05-14T20:11:15.616Z,13.30
2023-05-14T20:13:43.938Z,13.20
2023-05-14T20:16:13.536Z,13.10
2023-05-14T20:18:42.060Z,13.00
2023-05-14T20:21:10.315Z,12.90
2023-05-14T20:23:38.747Z,12.90
2023-05-14T20:26:06.991Z,12.80
2023-05-14T20:28:36.625Z,12.70
2023-05-14T20:31:04.800Z,12.60
2023-05-14T20:33:33.040Z,12.60
2023-05-14T20:36:03.505Z,12.60
2023-05-14T20:38:32.718Z,12.50
2023-05-14T20:41:00.826Z,12.50
2023-05-14T20:43:29.075Z,12.50
2023-05-14T20:46:00.417Z,12.60
2023-05-14T20:48:28.636Z,12.60
2023-05-14T20:50:56.832Z,12.60
2023-05-14T20:53:25.650Z,12.70
2023-05-14T20:55:53.775Z,12.70
2023-05-14T20:58:22.017Z,12.80
2023-05-14T21:00:50.163Z,12.80
2023-05-14T21:03:19.887Z,12.80
2023-05-14T21:05:48.141Z,12.80
2023-05-14T21:08:17.133Z,12.90
2023-05-14T21:10:45.298Z,12.90
2023-05-14T21:13:13.586Z,12.90
2023-05-14T21:15:41.981Z,12.90
2023-05-14T21:18:10.187Z,12.90
2023-05-14T21:20:39.878Z,12.80
2023-05-14T21:23:08.173Z,12.80
2023-05-14T21:25:36.308Z,12.80
2023-05-14T21:28:04.407Z,12.80
2023-05-14T21:30:32.557Z,12.80
2023-05-14T21:33:00.683Z,12.80
2023-05-14T21:35:28.915Z,12.80
2023-05-14T21:37:58.567Z,12.80
2023-05-14T21:40:26.719Z,12.80
2023-05-14T21:42:54.927Z,12.80
2023-05-14T21:45:23.709Z,12.90
2023-05-14T21:47:52.140Z,12.80
2023-05-14T21:50:20.546Z,12.90
2023-05-14T21:52:48.813Z,12.90
2023-05-14T21:55:18.683Z,12.90
2023-05-14T21:57:46.889Z,12.90
2023-05-14T22:00:23.055Z,12.90
2023-05-14T22:02:52.703Z,12.90
2023-05-14T22:05:21.106Z,12.90
2023-05-14T22:07:50.037Z,12.90
2023-05-14T22:10:19.923Z,12.90
2023-05-14T22:12:48.040Z,12.90
2023-05-14T22:15:16.331Z,12.90
2023-05-14T22:17:44.521Z,12.90
2023-05-14T22:20:12.984Z,12.90
2023-05-14T22:22:41.274Z,12.90
2023-05-14T22:25:10.711Z,12.90
2023-05-14T22:27:40.379Z,12.90
2023-05-14T22:30:09.890Z,12.90
2023-05-14T22:32:38.086Z,12.90
2023-05-14T22:35:06.745Z,12.90
2023-05-14T22:37:35.017Z,12.90
2023-05-14T22:40:05.090Z,12.80
2023-05-14T22:42:33.266Z,12.80
2023-05-14T22:45:03.074Z,12.80
2023-05-14T22:47:31.371Z,12.80
2023-05-14T22:49:59.511Z,12.80
2023-05-14T22:52:27.723Z,12.80
2023-05-14T22:54:55.978Z,12.80
2023-05-14T22:57:24.047Z,12.80
2023-05-14T22:59:52.166Z,12.80
2023-05-14T23:02:21.837Z,12.80
2023-05-14T23:04:50.071Z,12.80
2023-05-14T23:07:18.260Z,12.80
2023-05-14T23:09:46.407Z,12.80
2023-05-14T23:12:14.578Z,12.80
2023-05-14T23:14:42.762Z,12.80
2023-05-14T23:17:11.020Z,12.80
2023-05-14T23:19:41.354Z,12.80
2023-05-14T23:22:09.856Z,12.80
2023-05-14T23:24:38.048Z,12.80
2023-05-14T23:27:06.718Z,12.80
2023-05-14T23:29:34.934Z,12.70
2023-05-14T23:32:03.253Z,12.70
2023-05-14T23:34:31.384Z,12.60
2023-05-14T23:37:00.906Z,12.60
2023-05-14T23:39:29.092Z,12.50
2023-05-14T23:41:57.209Z,12.40
2023-05-14T23:44:25.470Z,12.40
2023-05-14T23:46:53.607Z,12.30
2023-05-14T23:49:21.965Z,12.20
2023-05-14T23:51:50.085Z,12.20
2023-05-14T23:54:19.634Z,12.20
2023-05-14T23:56:47.858Z,12.10
2023-05-14T23:59:16.236Z,12.10
